createdAt,value
2018-05-31T00:00:47.035Z,4.00
2018-05-31T00:01:47.092Z,4.00
2018-05-31T00:02:47.058Z,4.00
2018-05-31T00:03:47.050Z,0.00
2018-05-31T00:04:47.077Z,0.00
2018-05-31T00:05:47.181Z,0.00
2018-05-31T00:06:47.029Z,0.00
2018-05-31T00:07:47.047Z,0.00
2018-05-31T00:08:46.997Z,0.00
2018-05-31T00:09:47.008Z,4.00
2018-05-31T00:10:47.832Z,4.00
2018-05-31T00:11:47.004Z,4.00
2018-05-31T00:12:47.039Z,4.00
2018-05-31T00:13:47.009Z,0.00
2018-05-31T00:14:46.908Z,4.00
2018-05-31T00:15:46.929Z,4.00
2018-05-31T00:16:47.007Z,4.00
2018-05-31T00:17:46.908Z,4.00
2018-05-31T00:18:46.869Z,4.00
2018-05-31T00:19:46.968Z,4.00
2018-05-31T00:20:46.971Z,4.00
2018-05-31T00:21:46.927Z,8.00
2018-05-31T00:22:47.869Z,4.00
2018-05-31T00:23:46.920Z,8.00
2018-05-31T00:24:46.953Z,4.00
2018-05-31T00:25:46.854Z,8.00
2018-05-31T00:26:46.859Z,4.00
2018-05-31T00:27:46.856Z,8.00
2018-05-31T00:28:46.944Z,8.00
2018-05-31T00:29:46.850Z,8.00
2018-05-31T00:30:46.814Z,12.00
2018-05-31T00:31:46.920Z,12.00
2018-05-31T00:32:46.828Z,12.00
2018-05-31T00:33:46.815Z,8.00
2018-05-31T00:34:46.765Z,16.00
2018-05-31T00:35:46.765Z,16.00
2018-05-31T00:36:46.844Z,16.00
2018-05-31T00:37:46.700Z,16.00
2018-05-31T00:38:46.767Z,16.00
2018-05-31T00:39:46.717Z,20.00
2018-05-31T00:40:47.399Z,20.00
2018-05-31T00:41:46.798Z,20.00
2018-05-31T00:42:46.721Z,20.00
2018-05-31T00:43:46.660Z,24.00
2018-05-31T00:44:46.689Z,24.00
2018-05-31T00:45:46.759Z,28.00
2018-05-31T00:46:46.766Z,28.00
2018-05-31T00:47:46.734Z,32.00
2018-05-31T00:48:46.646Z,36.00
2018-05-31T00:49:46.720Z,36.00
2018-05-31T00:50:46.655Z,40.00
2018-05-31T00:51:46.771Z,44.00
2018-05-31T00:52:46.633Z,48.00
2018-05-31T00:53:46.672Z,52.00
2018-05-31T00:54:46.669Z,52.00
2018-05-31T00:55:46.779Z,56.00
2018-05-31T00:56:46.576Z,64.00
2018-05-31T00:57:46.542Z,64.00
2018-05-31T00:58:46.642Z,68.00
2018-05-31T00:59:46.542Z,76.00
2018-05-31T01:00:46.566Z,80.00
2018-05-31T01:01:46.631Z,84.00
2018-05-31T01:02:46.692Z,88.00
2018-05-31T01:03:46.536Z,96.00
2018-05-31T01:04:46.560Z,104.00
2018-05-31T01:05:46.565Z,108.00
2018-05-31T01:06:46.526Z,116.00
2018-05-31T01:07:47.327Z,120.00
2018-05-31T01:08:46.490Z,132.00
2018-05-31T01:09:46.459Z,140.00
2018-05-31T01:10:46.483Z,148.00
2018-05-31T01:11:46.507Z,156.00
2018-05-31T01:12:46.509Z,164.00
2018-05-31T01:13:46.538Z,176.00
2018-05-31T01:14:46.385Z,184.00
2018-05-31T01:15:46.429Z,192.00
2018-05-31T01:16:46.416Z,200.00
2018-05-31T01:17:46.371Z,216.00
2018-05-31T01:18:46.471Z,224.00
2018-05-31T01:19:46.463Z,232.00
2018-05-31T01:20:53.780Z,244.00
2018-05-31T01:21:46.376Z,256.00
2018-05-31T01:22:46.399Z,272.00
2018-05-31T01:23:46.294Z,280.00
2018-05-31T01:24:46.261Z,296.00
2018-05-31T01:25:46.311Z,308.00
2018-05-31T01:26:46.250Z,320.00
2018-05-31T01:27:46.358Z,336.00
2018-05-31T01:28:46.292Z,348.00
2018-05-31T01:29:46.822Z,364.00
2018-05-31T01:30:46.277Z,380.00
2018-05-31T01:31:46.223Z,396.00
2018-05-31T01:32:46.275Z,412.00
2018-05-31T01:33:46.225Z,428.00
2018-05-31T01:34:46.199Z,444.00
2018-05-31T01:35:46.181Z,464.00
2018-05-31T01:36:46.205Z,484.00
2018-05-31T01:37:46.146Z,500.00
2018-05-31T01:38:46.927Z,516.00
2018-05-31T01:39:46.183Z,536.00
2018-05-31T01:40:46.173Z,556.00
2018-05-31T01:41:46.147Z,576.00
2018-05-31T01:42:46.174Z,596.00
2018-05-31T01:43:46.135Z,620.00
2018-05-31T01:44:46.167Z,632.00
2018-05-31T01:45:46.105Z,652.00
2018-05-31T01:46:46.167Z,672.00
2018-05-31T01:47:46.092Z,696.00
2018-05-31T01:48:46.085Z,712.00
2018-05-31T01:49:46.095Z,732.00
2018-05-31T01:50:46.030Z,752.00
2018-05-31T01:51:46.074Z,768.00
2018-05-31T01:52:46.028Z,788.00
2018-05-31T01:53:46.057Z,808.00
2018-05-31T01:54:46.084Z,828.00
2018-05-31T01:55:46.071Z,848.00
2018-05-31T01:56:45.973Z,864.00
2018-05-31T01:57:46.993Z,888.00
2018-05-31T01:58:45.981Z,908.00
2018-05-31T01:59:45.967Z,928.00
2018-05-31T02:00:46.033Z,948.00
2018-05-31T02:01:45.949Z,968.00
2018-05-31T02:02:46.049Z,988.00
2018-05-31T02:03:45.994Z,1008.00
2018-05-31T02:04:45.987Z,1032.00
2018-05-31T02:05:45.953Z,1052.00
2018-05-31T02:06:45.867Z,1072.00
2018-05-31T02:07:45.889Z,1088.00
2018-05-31T02:08:46.907Z,1108.00
2018-05-31T02:09:45.982Z,1132.00
2018-05-31T02:10:45.871Z,1152.00
2018-05-31T02:11:48.923Z,1176.00
2018-05-31T02:12:46.058Z,1200.00
2018-05-31T02:13:45.857Z,1228.00
2018-05-31T02:14:45.903Z,1248.00
2018-05-31T02:15:45.856Z,1272.00
2018-05-31T02:16:45.804Z,1296.00
2018-05-31T02:17:45.829Z,1320.00
2018-05-31T02:18:45.906Z,1336.00
2018-05-31T02:19:45.813Z,1364.00
2018-05-31T02:20:45.804Z,1388.00
2018-05-31T02:21:45.777Z,1416.00
2018-05-31T02:22:45.740Z,1440.00
2018-05-31T02:23:45.776Z,1464.00
2018-05-31T02:24:45.771Z,1488.00
2018-05-31T02:25:45.862Z,1508.00
2018-05-31T02:26:45.834Z,1524.00
2018-05-31T02:27:45.732Z,1544.00
2018-05-31T02:28:45.833Z,1564.00
2018-05-31T02:29:45.766Z,1580.00
2018-05-31T02:30:45.705Z,1604.00
2018-05-31T02:31:45.692Z,1628.00
2018-05-31T02:32:45.830Z,1648.00
2018-05-31T02:33:45.660Z,1668.00
2018-05-31T02:34:46.447Z,1692.00
2018-05-31T02:35:45.668Z,1716.00
2018-05-31T02:36:45.648Z,1744.00
2018-05-31T02:37:45.684Z,1772.00
2018-05-31T02:38:45.654Z,1804.00
2018-05-31T02:39:45.651Z,1824.00
2018-05-31T02:40:45.694Z,1852.00
2018-05-31T02:41:45.682Z,1876.00
2018-05-31T02:42:45.645Z,1900.00
2018-05-31T02:43:45.577Z,1924.00
2018-05-31T02:44:45.594Z,1944.00
2018-05-31T02:45:45.542Z,1956.00
2018-05-31T02:46:45.611Z,1972.00
2018-05-31T02:47:45.571Z,1988.00
2018-05-31T02:48:45.543Z,2008.00
2018-05-31T02:49:45.503Z,2020.00
2018-05-31T02:50:45.574Z,2024.00
2018-05-31T02:51:45.532Z,2028.00
2018-05-31T02:52:45.562Z,2024.00
2018-05-31T02:53:45.725Z,2024.00
2018-05-31T02:54:45.517Z,2020.00
2018-05-31T02:55:45.517Z,2020.00
2018-05-31T02:56:45.423Z,2016.00
2018-05-31T02:57:45.517Z,2016.00
2018-05-31T02:58:45.411Z,2024.00
2018-05-31T02:59:45.543Z,2020.00
2018-05-31T03:00:46.484Z,2024.00
2018-05-31T03:01:45.420Z,2020.00
2018-05-31T03:02:45.420Z,2032.00
2018-05-31T03:03:45.460Z,2036.00
2018-05-31T03:04:45.381Z,2052.00
2018-05-31T03:05:45.438Z,2056.00
2018-05-31T03:06:45.384Z,2072.00
2018-05-31T03:07:45.391Z,2088.00
2018-05-31T03:08:46.877Z,2112.00
2018-05-31T03:09:45.382Z,2136.00
2018-05-31T03:10:52.901Z,2136.00
2018-05-31T03:12:38.399Z,2200.00
2018-05-31T03:13:38.256Z,2256.00
2018-05-31T03:15:31.546Z,2336.00
2018-05-31T03:16:31.610Z,2360.00
2018-05-31T03:18:25.485Z,2420.00
2018-05-31T03:19:24.877Z,2456.00
2018-05-31T03:20:24.902Z,2468.00
2018-05-31T03:21:24.905Z,2468.00
2018-05-31T03:22:24.896Z,2488.00
2018-05-31T03:23:24.810Z,2500.00
2018-05-31T03:24:24.831Z,2516.00
2018-05-31T03:25:24.807Z,2536.00
2018-05-31T03:26:24.896Z,2560.00
2018-05-31T03:27:25.358Z,2580.00
2018-05-31T03:28:24.844Z,2600.00
2018-05-31T03:29:24.948Z,2616.00
2018-05-31T03:30:24.986Z,2628.00
2018-05-31T03:31:24.818Z,2648.00
2018-05-31T03:32:24.785Z,2672.00
2018-05-31T03:33:24.976Z,2676.00
2018-05-31T03:34:24.820Z,2676.00
2018-05-31T03:35:24.966Z,2688.00
2018-05-31T03:36:24.734Z,2696.00
2018-05-31T03:37:24.779Z,2696.00
2018-05-31T03:38:25.714Z,2696.00
2018-05-31T03:39:24.852Z,2680.00
2018-05-31T03:40:24.978Z,2680.00
2018-05-31T03:41:25.663Z,2668.00
2018-05-31T03:42:24.646Z,2656.00
2018-05-31T03:43:24.854Z,2672.00
2018-05-31T03:44:24.802Z,2672.00
2018-05-31T03:45:24.668Z,2664.00
2018-05-31T03:46:25.525Z,2648.00
2018-05-31T03:47:24.655Z,2640.00
2018-05-31T03:48:24.671Z,2628.00
2018-05-31T03:49:24.705Z,2612.00
2018-05-31T03:50:24.661Z,2600.00
2018-05-31T03:51:24.632Z,2592.00
2018-05-31T03:52:24.818Z,2580.00
2018-05-31T03:53:24.594Z,2564.00
2018-05-31T03:54:24.641Z,2592.00
2018-05-31T03:55:24.580Z,2580.00
2018-05-31T03:56:24.652Z,2584.00
2018-05-31T03:57:24.816Z,2596.00
2018-05-31T03:58:24.589Z,2604.00
2018-05-31T03:59:24.613Z,2616.00
2018-05-31T04:00:24.532Z,2624.00
2018-05-31T04:01:24.845Z,2632.00
2018-05-31T04:02:24.527Z,2640.00
2018-05-31T04:03:24.541Z,2628.00
2018-05-31T04:04:24.492Z,2608.00
2018-05-31T04:05:24.538Z,2596.00
2018-05-31T04:06:24.508Z,2584.00
2018-05-31T04:07:24.436Z,2652.00
2018-05-31T04:08:24.446Z,2696.00
2018-05-31T04:09:24.461Z,2704.00
2018-05-31T04:10:24.409Z,2712.00
2018-05-31T04:11:24.433Z,2708.00
2018-05-31T04:12:26.160Z,2712.00
2018-05-31T04:13:24.463Z,2708.00
2018-05-31T04:14:24.453Z,2708.00
2018-05-31T04:15:24.385Z,2704.00
2018-05-31T04:16:25.012Z,2700.00
2018-05-31T04:17:24.377Z,2688.00
2018-05-31T04:18:27.014Z,2688.00
2018-05-31T04:19:24.562Z,2688.00
2018-05-31T04:20:24.391Z,2684.00
2018-05-31T04:21:24.378Z,2664.00
2018-05-31T04:22:24.354Z,2604.00
2018-05-31T04:23:24.336Z,2580.00
2018-05-31T04:24:25.087Z,2580.00
2018-05-31T04:25:24.503Z,2576.00
2018-05-31T04:26:24.301Z,2564.00
2018-05-31T04:27:24.405Z,2588.00
2018-05-31T04:28:24.369Z,2576.00
2018-05-31T04:29:24.498Z,2560.00
2018-05-31T04:30:24.304Z,2560.00
2018-05-31T04:31:24.271Z,2592.00
2018-05-31T04:32:24.273Z,2620.00
2018-05-31T04:33:24.254Z,2676.00
2018-05-31T04:34:24.326Z,2764.00
2018-05-31T04:35:24.298Z,2832.00
2018-05-31T04:36:24.350Z,2860.00
2018-05-31T04:37:24.365Z,2892.00
2018-05-31T04:38:24.333Z,2928.00
2018-05-31T04:39:24.230Z,2940.00
2018-05-31T04:40:24.310Z,2940.00
2018-05-31T04:41:24.233Z,2948.00
2018-05-31T04:42:24.354Z,2952.00
2018-05-31T04:43:25.061Z,2980.00
2018-05-31T04:44:24.215Z,2968.00
2018-05-31T04:45:25.363Z,2960.00
2018-05-31T04:46:24.254Z,2952.00
2018-05-31T04:47:24.273Z,2964.00
2018-05-31T04:48:24.293Z,2964.00
2018-05-31T04:49:24.294Z,2960.00
2018-05-31T04:50:24.126Z,2956.00
2018-05-31T04:51:24.123Z,2968.00
2018-05-31T04:52:24.289Z,2976.00
2018-05-31T04:53:24.103Z,2996.00
2018-05-31T04:54:24.097Z,3012.00
2018-05-31T04:55:24.466Z,3028.00
2018-05-31T04:56:24.401Z,3056.00
2018-05-31T04:57:24.100Z,3040.00
2018-05-31T04:58:24.327Z,3068.00
2018-05-31T04:59:24.090Z,3056.00
2018-05-31T05:00:24.250Z,3064.00
2018-05-31T05:01:24.022Z,3092.00
2018-05-31T05:02:24.002Z,3040.00
2018-05-31T05:03:24.083Z,3072.00
2018-05-31T05:04:24.019Z,3040.00
2018-05-31T05:05:24.121Z,3092.00
2018-05-31T05:06:24.025Z,3040.00
2018-05-31T05:07:24.041Z,3016.00
2018-05-31T05:08:24.061Z,2956.00
2018-05-31T05:09:24.010Z,2992.00
2018-05-31T05:10:23.953Z,2992.00
2018-05-31T05:11:23.941Z,2900.00
2018-05-31T05:12:24.048Z,2968.00
2018-05-31T05:13:24.001Z,2916.00
2018-05-31T05:14:24.004Z,3024.00
2018-05-31T05:15:23.987Z,3080.00
2018-05-31T05:16:24.092Z,3144.00
2018-05-31T05:17:23.873Z,3132.00
2018-05-31T05:18:25.080Z,3120.00
2018-05-31T05:19:23.905Z,3128.00
2018-05-31T05:20:23.869Z,3144.00
2018-05-31T05:21:23.964Z,3152.00
2018-05-31T05:22:23.864Z,3164.00
2018-05-31T05:23:24.032Z,3152.00
2018-05-31T05:24:23.922Z,3156.00
2018-05-31T05:25:23.825Z,3172.00
2018-05-31T05:26:24.066Z,3248.00
2018-05-31T05:27:23.878Z,3244.00
2018-05-31T05:28:23.824Z,3240.00
2018-05-31T05:29:23.928Z,3252.00
2018-05-31T05:30:23.987Z,3196.00
2018-05-31T05:31:23.912Z,3164.00
2018-05-31T05:32:23.773Z,3172.00
2018-05-31T05:33:23.806Z,3176.00
2018-05-31T05:34:23.963Z,3188.00
2018-05-31T05:35:23.810Z,3208.00
2018-05-31T05:36:23.767Z,3256.00
2018-05-31T05:37:23.873Z,3276.00
2018-05-31T05:38:23.868Z,3288.00
2018-05-31T05:39:23.761Z,3304.00
2018-05-31T05:40:23.822Z,3316.00
2018-05-31T05:41:24.640Z,3340.00
2018-05-31T05:42:23.785Z,3352.00
2018-05-31T05:43:23.811Z,3372.00
2018-05-31T05:44:23.816Z,3384.00
2018-05-31T05:45:31.450Z,3388.00
2018-05-31T05:47:17.161Z,3416.00
2018-05-31T05:48:17.044Z,3416.00
2018-05-31T05:50:10.524Z,3420.00
2018-05-31T05:51:10.595Z,3432.00
2018-05-31T05:53:17.090Z,3444.00
2018-05-31T05:54:16.005Z,3432.00
2018-05-31T05:56:09.457Z,3408.00
2018-05-31T05:57:09.746Z,3396.00
2018-05-31T05:59:02.950Z,3392.00
2018-05-31T06:00:02.611Z,3388.00
2018-05-31T06:01:56.429Z,3388.00
2018-05-31T06:02:56.244Z,3388.00
2018-05-31T06:04:50.101Z,3392.00
2018-05-31T06:05:50.284Z,3404.00
2018-05-31T06:07:43.481Z,3424.00
2018-05-31T06:10:37.080Z,3460.00
2018-05-31T06:11:37.196Z,3484.00
2018-05-31T06:13:31.056Z,3516.00
2018-05-31T06:14:30.637Z,3540.00
2018-05-31T06:16:23.507Z,3592.00
2018-05-31T06:17:23.514Z,3616.00
2018-05-31T06:19:16.762Z,3660.00
2018-05-31T06:20:16.985Z,3672.00
2018-05-31T06:21:16.713Z,3628.00
2018-05-31T06:22:16.775Z,3676.00
2018-05-31T06:23:16.720Z,3772.00
2018-05-31T06:24:16.799Z,3816.00
2018-05-31T06:25:16.714Z,3848.00
2018-05-31T06:26:16.791Z,3876.00
2018-05-31T06:27:16.913Z,3924.00
2018-05-31T06:28:16.710Z,3976.00
2018-05-31T06:29:16.865Z,4040.00
2018-05-31T06:30:17.349Z,4096.00
2018-05-31T06:31:16.700Z,4176.00
2018-05-31T06:32:16.732Z,4312.00
2018-05-31T06:33:16.701Z,4504.00
2018-05-31T06:34:16.728Z,4740.00
2018-05-31T06:35:16.613Z,4992.00
2018-05-31T06:36:16.731Z,5240.00
2018-05-31T06:37:16.822Z,5492.00
2018-05-31T06:38:17.293Z,5748.00
2018-05-31T06:39:16.786Z,6004.00
2018-05-31T06:40:16.630Z,6280.00
2018-05-31T06:41:16.817Z,6556.00
2018-05-31T06:42:16.682Z,6820.00
2018-05-31T06:43:16.588Z,7120.00
2018-05-31T06:44:16.584Z,7416.00
2018-05-31T06:45:16.582Z,7744.00
2018-05-31T06:46:16.736Z,8080.00
2018-05-31T06:47:16.543Z,8464.00
2018-05-31T06:48:16.672Z,8852.00
2018-05-31T06:49:16.546Z,9260.00
2018-05-31T06:50:16.540Z,9700.00
2018-05-31T06:51:16.669Z,10564.00
2018-05-31T06:52:16.573Z,11720.00
2018-05-31T06:53:16.569Z,12772.00
2018-05-31T06:54:16.620Z,13488.00
2018-05-31T06:55:16.776Z,14016.00
2018-05-31T06:56:16.610Z,14648.00
2018-05-31T06:57:16.495Z,15104.00
2018-05-31T06:58:16.541Z,15524.00
2018-05-31T06:59:16.642Z,15892.00
2018-05-31T07:00:16.547Z,16448.00
2018-05-31T07:01:16.663Z,16672.00
2018-05-31T07:02:16.496Z,16992.00
2018-05-31T07:03:16.819Z,17248.00
2018-05-31T07:04:16.449Z,17568.00
2018-05-31T07:05:16.458Z,17856.00
2018-05-31T07:06:17.360Z,18272.00
2018-05-31T07:07:16.852Z,18944.00
2018-05-31T07:08:17.254Z,19520.00
2018-05-31T07:09:16.520Z,20128.00
2018-05-31T07:10:16.634Z,20960.00
2018-05-31T07:11:17.297Z,21728.00
2018-05-31T07:12:16.478Z,21824.00
2018-05-31T07:13:16.466Z,22144.00
2018-05-31T07:14:16.519Z,22688.00
2018-05-31T07:15:16.494Z,23200.00
2018-05-31T07:16:16.511Z,23488.00
2018-05-31T07:17:16.479Z,23584.00
2018-05-31T07:18:16.731Z,23872.00
2018-05-31T07:19:16.652Z,24608.00
2018-05-31T07:20:16.476Z,25376.00
2018-05-31T07:21:16.565Z,25792.00
2018-05-31T07:22:16.475Z,25760.00
2018-05-31T07:23:16.495Z,25984.00
2018-05-31T07:24:16.675Z,26656.00
2018-05-31T07:25:16.542Z,27168.00
2018-05-31T07:26:16.472Z,27456.00
2018-05-31T07:27:16.521Z,27712.00
2018-05-31T07:28:16.469Z,28640.00
2018-05-31T07:29:16.562Z,29408.00
2018-05-31T07:30:16.546Z,29728.00
2018-05-31T07:31:16.556Z,30272.00
2018-05-31T07:32:16.587Z,30976.00
2018-05-31T07:33:16.955Z,31840.00
2018-05-31T07:34:16.445Z,31424.00
2018-05-31T07:35:16.690Z,29888.00
2018-05-31T07:36:16.646Z,28576.00
2018-05-31T07:37:17.004Z,28224.00
2018-05-31T07:38:16.848Z,28352.00
2018-05-31T07:39:16.393Z,28768.00
2018-05-31T07:40:16.398Z,29056.00
2018-05-31T07:41:16.492Z,29120.00
2018-05-31T07:42:16.649Z,29024.00
2018-05-31T07:43:16.475Z,29152.00
2018-05-31T07:44:16.628Z,29248.00
2018-05-31T07:45:16.525Z,29280.00
2018-05-31T07:46:16.502Z,29088.00
2018-05-31T07:47:16.650Z,29280.00
2018-05-31T07:48:16.463Z,29056.00
2018-05-31T07:49:16.455Z,28896.00
2018-05-31T07:50:16.472Z,29056.00
2018-05-31T07:51:16.476Z,29152.00
2018-05-31T07:52:16.510Z,28896.00
2018-05-31T07:53:16.470Z,28864.00
2018-05-31T07:54:16.504Z,29024.00
2018-05-31T07:55:16.389Z,29152.00
2018-05-31T07:56:16.460Z,29440.00
2018-05-31T07:57:16.713Z,29472.00
2018-05-31T07:58:16.642Z,29280.00
2018-05-31T07:59:16.485Z,29376.00
2018-05-31T08:00:16.502Z,29632.00
2018-05-31T08:01:16.640Z,29824.00
2018-05-31T08:02:16.688Z,27392.00
2018-05-31T08:03:16.428Z,29568.00
2018-05-31T08:04:16.477Z,29664.00
2018-05-31T08:05:16.604Z,29856.00
2018-05-31T08:06:17.117Z,30208.00
2018-05-31T08:07:16.800Z,30368.00
2018-05-31T08:08:16.506Z,30400.00
2018-05-31T08:09:16.528Z,30144.00
2018-05-31T08:10:16.584Z,30368.00
2018-05-31T08:11:17.932Z,30208.00
2018-05-31T08:12:16.641Z,30240.00
2018-05-31T08:13:16.574Z,30144.00
2018-05-31T08:14:16.814Z,30272.00
2018-05-31T08:15:16.612Z,29888.00
2018-05-31T08:16:16.725Z,29504.00
2018-05-31T08:17:17.111Z,29216.00
2018-05-31T08:18:16.759Z,29248.00
2018-05-31T08:19:16.598Z,29664.00
2018-05-31T08:20:16.551Z,30144.00
2018-05-31T08:21:16.566Z,30048.00
2018-05-31T08:22:16.565Z,29504.00
2018-05-31T08:23:16.573Z,29216.00
2018-05-31T08:24:16.686Z,29248.00
2018-05-31T08:25:16.938Z,29312.00
2018-05-31T08:26:16.608Z,29472.00
2018-05-31T08:27:16.681Z,29504.00
2018-05-31T08:28:16.727Z,29760.00
2018-05-31T08:29:16.629Z,29792.00
2018-05-31T08:30:16.589Z,29856.00
2018-05-31T08:31:16.693Z,29952.00
2018-05-31T08:32:16.624Z,30048.00
2018-05-31T08:33:16.685Z,30016.00
2018-05-31T08:34:16.728Z,30080.00
2018-05-31T08:35:16.632Z,30336.00
2018-05-31T08:36:16.676Z,30464.00
2018-05-31T08:37:16.653Z,30400.00
2018-05-31T08:38:16.890Z,30304.00
2018-05-31T08:39:16.708Z,30208.00
2018-05-31T08:40:16.683Z,30496.00
2018-05-31T08:41:16.757Z,30656.00
2018-05-31T08:42:16.767Z,30688.00
2018-05-31T08:43:16.916Z,30976.00
2018-05-31T08:44:16.779Z,31008.00
2018-05-31T08:45:16.705Z,31104.00
2018-05-31T08:46:16.755Z,31232.00
2018-05-31T08:47:16.708Z,31776.00
2018-05-31T08:48:16.747Z,32192.00
2018-05-31T08:49:16.824Z,32064.00
2018-05-31T08:50:16.811Z,32160.00
2018-05-31T08:51:17.364Z,32480.00
2018-05-31T08:52:16.856Z,32288.00
2018-05-31T08:53:17.393Z,32064.00
2018-05-31T08:54:16.773Z,32128.00
2018-05-31T08:55:16.891Z,32576.00
2018-05-31T08:56:16.824Z,33408.00
2018-05-31T08:57:16.807Z,33440.00
2018-05-31T08:58:16.883Z,32992.00
2018-05-31T08:59:16.983Z,32768.00
2018-05-31T09:00:16.949Z,32704.00
2018-05-31T09:01:16.981Z,32928.00
2018-05-31T09:02:16.989Z,33248.00
2018-05-31T09:03:16.953Z,33024.00
2018-05-31T09:04:16.926Z,32704.00
2018-05-31T09:05:17.278Z,32896.00
2018-05-31T09:06:16.947Z,32864.00
2018-05-31T09:07:17.044Z,32928.00
2018-05-31T09:08:16.935Z,32992.00
2018-05-31T09:09:17.031Z,33056.00
2018-05-31T09:11:17.260Z,33344.00
2018-05-31T09:12:17.062Z,33664.00
2018-05-31T09:13:17.015Z,33888.00
2018-05-31T09:14:17.057Z,33856.00
2018-05-31T09:15:17.081Z,34080.00
2018-05-31T09:16:17.058Z,34208.00
2018-05-31T09:17:17.065Z,34464.00
2018-05-31T09:18:17.070Z,34656.00
2018-05-31T09:19:17.066Z,34560.00
2018-05-31T09:20:17.112Z,34496.00
2018-05-31T09:21:17.083Z,34784.00
2018-05-31T09:22:17.091Z,35200.00
2018-05-31T09:23:17.142Z,35712.00
2018-05-31T09:24:17.160Z,35936.00
2018-05-31T09:25:17.137Z,35616.00
2018-05-31T09:26:17.147Z,35040.00
2018-05-31T09:27:17.166Z,34912.00
2018-05-31T09:28:17.172Z,34912.00
2018-05-31T09:29:17.202Z,34944.00
2018-05-31T09:30:17.206Z,35040.00
2018-05-31T09:31:17.202Z,35264.00
2018-05-31T09:32:17.267Z,35360.00
2018-05-31T09:33:17.359Z,35680.00
2018-05-31T09:34:17.350Z,35776.00
2018-05-31T09:35:17.266Z,35552.00
2018-05-31T09:36:17.450Z,35616.00
2018-05-31T09:37:17.300Z,35744.00
2018-05-31T09:38:17.324Z,35776.00
2018-05-31T09:39:17.356Z,35808.00
2018-05-31T09:40:17.382Z,36000.00
2018-05-31T09:41:17.379Z,36064.00
2018-05-31T09:42:17.456Z,36192.00
2018-05-31T09:43:17.382Z,36288.00
2018-05-31T09:44:17.387Z,36512.00
2018-05-31T09:45:17.409Z,36512.00
2018-05-31T09:46:17.417Z,36384.00
2018-05-31T09:47:17.429Z,36576.00
2018-05-31T09:48:17.478Z,36928.00
2018-05-31T09:49:17.445Z,37088.00
2018-05-31T09:50:17.637Z,37216.00
2018-05-31T09:51:17.479Z,37120.00
2018-05-31T09:52:17.498Z,37280.00
2018-05-31T09:53:17.537Z,37248.00
2018-05-31T09:54:17.560Z,37376.00
2018-05-31T09:55:17.522Z,37312.00
2018-05-31T09:56:17.561Z,37376.00
2018-05-31T09:57:17.639Z,37440.00
2018-05-31T09:58:17.601Z,37696.00
2018-05-31T09:59:17.634Z,37472.00
2018-05-31T10:00:17.685Z,37472.00
2018-05-31T10:01:17.652Z,37856.00
2018-05-31T10:02:17.620Z,38048.00
2018-05-31T10:03:17.669Z,37984.00
2018-05-31T10:04:17.765Z,37792.00
2018-05-31T10:05:17.673Z,37984.00
2018-05-31T10:06:17.677Z,38368.00
2018-05-31T10:07:17.706Z,38656.00
2018-05-31T10:08:17.747Z,38784.00
2018-05-31T10:09:17.769Z,38944.00
2018-05-31T10:10:17.936Z,38912.00
2018-05-31T10:11:17.826Z,39168.00
2018-05-31T10:12:17.899Z,39680.00
2018-05-31T10:13:17.867Z,40288.00
2018-05-31T10:14:17.824Z,40672.00
2018-05-31T10:15:17.904Z,40448.00
2018-05-31T10:16:17.850Z,40288.00
2018-05-31T10:17:17.868Z,40192.00
2018-05-31T10:18:17.939Z,40544.00
2018-05-31T10:19:17.904Z,40448.00
2018-05-31T10:20:17.889Z,40640.00
2018-05-31T10:21:18.114Z,40896.00
2018-05-31T10:22:19.931Z,41760.00
2018-05-31T10:23:19.400Z,42240.00
2018-05-31T10:25:59.572Z,41536.00
2018-05-31T10:27:06.944Z,42528.00
2018-05-31T10:28:52.198Z,46944.00
2018-05-31T10:29:52.421Z,48544.00
2018-05-31T10:49:16.097Z,58624.00
2018-05-31T10:50:16.538Z,60544.00
2018-05-31T10:52:11.816Z,61408.00
2018-05-31T10:54:49.655Z,59520.00
2018-05-31T10:59:57.372Z,64192.00
2018-05-31T11:00:56.475Z,66464.00
2018-05-31T11:01:56.510Z,70496.00
2018-05-31T11:02:56.541Z,73632.00
2018-05-31T11:03:56.512Z,73664.00
2018-05-31T11:04:56.513Z,72640.00
2018-05-31T11:05:56.528Z,75232.00
2018-05-31T11:06:56.562Z,79168.00
2018-05-31T11:07:56.607Z,78912.00
2018-05-31T11:08:56.582Z,76672.00
2018-05-31T11:09:56.761Z,77920.00
2018-05-31T11:10:56.662Z,81184.00
2018-05-31T11:11:56.625Z,77760.00
2018-05-31T11:12:56.658Z,74464.00
2018-05-31T11:13:56.687Z,77440.00
2018-05-31T11:14:56.763Z,79936.00
2018-05-31T11:15:56.695Z,79200.00
2018-05-31T11:16:56.815Z,77312.00
2018-05-31T11:17:56.815Z,78816.00
2018-05-31T11:18:56.749Z,80192.00
2018-05-31T11:19:56.785Z,82048.00
2018-05-31T11:20:56.880Z,81696.00
2018-05-31T11:21:56.853Z,77440.00
2018-05-31T11:22:56.822Z,75488.00
2018-05-31T11:23:56.835Z,78176.00
2018-05-31T11:25:04.568Z,82816.00
2018-05-31T11:26:50.251Z,79776.00
2018-05-31T11:27:50.241Z,80000.00
2018-05-31T11:29:43.248Z,83584.00
2018-05-31T11:30:43.214Z,82304.00
2018-05-31T11:32:36.166Z,83808.00
2018-05-31T11:33:36.145Z,81696.00
2018-05-31T11:35:29.049Z,77600.00
2018-05-31T11:36:29.071Z,82592.00
2018-05-31T11:38:22.563Z,84704.00
2018-05-31T11:39:22.529Z,83168.00
2018-05-31T11:41:15.430Z,85280.00
2018-05-31T11:42:15.551Z,86976.00
2018-05-31T11:44:08.369Z,86144.00
2018-05-31T11:45:08.372Z,86592.00
2018-05-31T11:47:01.768Z,88768.00
2018-05-31T11:48:01.852Z,87040.00
2018-05-31T11:49:55.225Z,84864.00
2018-05-31T11:50:55.204Z,87968.00
2018-05-31T11:52:48.072Z,86528.00
2018-05-31T11:53:48.143Z,85920.00
2018-05-31T11:55:41.529Z,89216.00
2018-05-31T11:56:41.513Z,88992.00
2018-05-31T11:58:34.902Z,90720.00
2018-05-31T11:59:34.924Z,89088.00
2018-05-31T12:00:34.976Z,85760.00
2018-05-31T12:01:34.991Z,85152.00
2018-05-31T12:02:34.953Z,87328.00
2018-05-31T12:03:35.041Z,89344.00
2018-05-31T12:04:35.024Z,87424.00
2018-05-31T12:05:35.020Z,84448.00
2018-05-31T12:06:35.020Z,85536.00
2018-05-31T12:07:35.087Z,87936.00
2018-05-31T12:08:35.076Z,86944.00
2018-05-31T12:09:35.387Z,86720.00
2018-05-31T12:10:35.098Z,88192.00
2018-05-31T12:11:35.170Z,89056.00
2018-05-31T12:12:35.135Z,87520.00
2018-05-31T12:13:35.154Z,90048.00
2018-05-31T12:14:35.173Z,93088.00
2018-05-31T12:15:35.209Z,94912.00
2018-05-31T12:16:35.214Z,94176.00
2018-05-31T12:17:35.265Z,94400.00
2018-05-31T12:18:35.215Z,97312.00
2018-05-31T12:19:35.239Z,98048.00
2018-05-31T12:20:35.247Z,101440.00
2018-05-31T12:21:35.259Z,103296.00
2018-05-31T12:22:35.281Z,100672.00
2018-05-31T12:23:35.313Z,99456.00
2018-05-31T12:24:35.437Z,101152.00
2018-05-31T12:25:35.357Z,105824.00
2018-05-31T12:26:35.393Z,106592.00
2018-05-31T12:27:35.386Z,104576.00
2018-05-31T12:28:36.057Z,102336.00
2018-05-31T12:29:35.408Z,105824.00
2018-05-31T12:30:35.404Z,104736.00
2018-05-31T12:31:35.363Z,103456.00
2018-05-31T12:32:35.423Z,103392.00
2018-05-31T12:33:35.431Z,104960.00
2018-05-31T12:34:35.482Z,107104.00
2018-05-31T12:35:35.423Z,107392.00
2018-05-31T12:36:35.423Z,112352.00
2018-05-31T12:37:35.613Z,121120.00
2018-05-31T12:38:36.079Z,121472.00
2018-05-31T12:39:35.482Z,113984.00
2018-05-31T12:40:35.479Z,117984.00
2018-05-31T12:41:35.510Z,124192.00
2018-05-31T12:42:35.552Z,120800.00
2018-05-31T12:43:35.540Z,120224.00
2018-05-31T12:44:35.566Z,127104.00
2018-05-31T12:45:35.571Z,131168.00
2018-05-31T12:46:35.618Z,129280.00
2018-05-31T12:47:35.626Z,125088.00
2018-05-31T12:48:35.599Z,128288.00
2018-05-31T12:49:35.562Z,132352.00
2018-05-31T12:50:35.766Z,130048.00
2018-05-31T12:51:35.621Z,126400.00
2018-05-31T12:52:35.701Z,124640.00
2018-05-31T12:53:35.666Z,125984.00
2018-05-31T12:54:35.713Z,124064.00
2018-05-31T12:55:35.673Z,121120.00